createdAt,value
2019-04-29T00:02:28.284Z,7.60
2019-04-29T00:04:56.970Z,7.60
2019-04-29T00:07:25.515Z,7.60
2019-04-29T00:09:54.805Z,7.60
2019-04-29T00:12:23.957Z,7.60
2019-04-29T00:14:57.473Z,7.60
2019-04-29T00:17:27.630Z,7.60
2019-04-29T00:20:09.844Z,7.60
2019-04-29T00:22:38.458Z,7.60
2019-04-29T00:25:07.242Z,7.60
2019-04-29T00:27:35.788Z,7.60
2019-04-29T00:30:08.538Z,7.60
2019-04-29T00:32:37.060Z,7.50
2019-04-29T00:35:07.214Z,7.60
2019-04-29T00:37:55.566Z,7.50
2019-04-29T00:40:37.683Z,7.50
2019-04-29T00:43:07.778Z,7.60
2019-04-29T00:45:36.676Z,7.60
2019-04-29T00:48:05.358Z,7.60
2019-04-29T00:50:34.250Z,7.60
2019-04-29T00:53:02.703Z,7.60
2019-04-29T00:55:32.816Z,7.60
2019-04-29T00:58:01.407Z,7.60
2019-04-29T01:00:32.054Z,7.60
2019-04-29T01:03:00.575Z,7.60
2019-04-29T01:05:29.340Z,7.60
2019-04-29T01:07:57.867Z,7.60
2019-04-29T01:10:26.411Z,7.50
2019-04-29T01:12:54.998Z,7.50
2019-04-29T01:15:23.643Z,7.50
2019-04-29T01:17:52.090Z,7.40
2019-04-29T01:20:21.075Z,7.40
2019-04-29T01:22:49.527Z,7.40
2019-04-29T01:25:18.067Z,7.30
2019-04-29T01:28:00.146Z,7.30
2019-04-29T01:30:37.427Z,7.30
2019-04-29T01:33:05.867Z,7.30
2019-04-29T01:35:34.343Z,7.30
2019-04-29T01:38:02.783Z,7.20
2019-04-29T01:40:42.191Z,7.20
2019-04-29T01:43:10.702Z,7.20
2019-04-29T01:45:39.245Z,7.10
2019-04-29T01:48:07.698Z,7.10
2019-04-29T01:50:36.519Z,7.00
2019-04-29T01:53:05.043Z,7.00
2019-04-29T01:55:33.591Z,7.00
2019-04-29T01:58:02.476Z,7.00
2019-04-29T02:00:30.951Z,6.90
2019-04-29T02:02:59.403Z,6.90
2019-04-29T02:05:27.867Z,6.90
2019-04-29T02:07:56.387Z,6.90
2019-04-29T02:10:32.660Z,6.80
2019-04-29T02:13:01.555Z,6.80
2019-04-29T02:15:30.239Z,6.80
2019-04-29T02:17:59.663Z,6.80
2019-04-29T02:20:28.135Z,6.80
2019-04-29T02:23:00.812Z,6.80
2019-04-29T02:25:43.246Z,6.80
2019-04-29T02:28:11.695Z,6.80
2019-04-29T02:30:42.471Z,6.80
2019-04-29T02:33:11.318Z,6.80
2019-04-29T02:35:40.304Z,6.80
2019-04-29T02:38:10.850Z,6.80
2019-04-29T02:40:41.375Z,6.80
2019-04-29T02:43:23.502Z,6.80
2019-04-29T02:45:52.044Z,6.80
2019-04-29T02:48:20.567Z,6.70
2019-04-29T02:50:49.129Z,6.70
2019-04-29T02:53:17.659Z,6.70
2019-04-29T02:55:47.848Z,6.70
2019-04-29T02:58:26.717Z,6.70
2019-04-29T03:01:13.576Z,6.70
2019-04-29T03:03:44.076Z,6.60
2019-04-29T03:06:12.554Z,6.70
2019-04-29T03:08:41.207Z,6.60
2019-04-29T03:11:09.690Z,6.60
2019-04-29T03:13:38.362Z,6.60
2019-04-29T03:16:07.222Z,6.50
2019-04-29T03:18:37.385Z,6.50
2019-04-29T03:21:10.299Z,6.50
2019-04-29T03:23:38.891Z,6.40
2019-04-29T03:26:07.797Z,6.40
2019-04-29T03:28:36.243Z,6.40
2019-04-29T03:31:04.908Z,6.30
2019-04-29T03:33:33.668Z,6.30
2019-04-29T03:36:02.545Z,6.30
2019-04-29T03:38:31.223Z,6.30
2019-04-29T03:40:59.734Z,6.30
2019-04-29T03:43:28.339Z,6.30
2019-04-29T03:45:56.859Z,6.30
2019-04-29T03:48:25.667Z,6.30
2019-04-29T03:50:54.118Z,6.30
2019-04-29T03:53:22.667Z,6.30
2019-04-29T03:55:52.760Z,6.30
2019-04-29T03:58:21.561Z,6.20
2019-04-29T04:00:51.695Z,6.20
2019-04-29T04:03:27.563Z,6.10
2019-04-29T04:06:03.400Z,6.10
2019-04-29T04:08:36.270Z,6.10
2019-04-29T04:11:04.868Z,6.10
2019-04-29T04:13:33.416Z,6.00
2019-04-29T04:16:02.308Z,6.00
2019-04-29T04:18:32.427Z,6.00
2019-04-29T04:21:00.883Z,6.00
2019-04-29T04:23:29.440Z,6.00
2019-04-29T04:25:58.183Z,6.00
2019-04-29T04:28:26.732Z,6.00
2019-04-29T04:30:55.331Z,6.00
2019-04-29T04:33:23.879Z,6.00
2019-04-29T04:35:52.344Z,6.10
2019-04-29T04:38:21.205Z,6.10
2019-04-29T04:40:57.044Z,6.10
2019-04-29T04:43:25.528Z,6.10
2019-04-29T04:45:54.341Z,6.10
2019-04-29T04:48:22.884Z,6.20
2019-04-29T04:50:51.703Z,6.20
2019-04-29T04:53:20.328Z,6.20
2019-04-29T04:55:50.923Z,6.30
2019-04-29T04:58:19.475Z,6.30
2019-04-29T05:00:48.072Z,6.30
2019-04-29T05:03:16.619Z,6.30
2019-04-29T05:05:45.151Z,6.30
2019-04-29T05:08:13.935Z,6.40
2019-04-29T05:10:42.388Z,6.40
2019-04-29T05:13:10.939Z,6.50
2019-04-29T05:15:39.895Z,6.50
2019-04-29T05:18:08.511Z,6.50
2019-04-29T05:20:37.267Z,6.60
2019-04-29T05:23:05.747Z,6.60
2019-04-29T05:25:34.935Z,6.60
2019-04-29T05:28:03.956Z,6.70
2019-04-29T05:30:33.460Z,6.70
2019-04-29T05:33:02.156Z,6.70
2019-04-29T05:35:32.288Z,6.70
2019-04-29T05:38:02.785Z,6.70
2019-04-29T05:40:45.596Z,6.80
2019-04-29T05:43:15.799Z,6.90
2019-04-29T05:46:02.842Z,7.00
2019-04-29T05:48:32.101Z,7.00
2019-04-29T05:51:03.587Z,7.00
2019-04-29T05:53:33.707Z,7.10
2019-04-29T05:56:02.227Z,7.20
2019-04-29T05:58:32.872Z,7.20
2019-04-29T06:01:11.635Z,7.30
2019-04-29T06:03:40.102Z,7.30
2019-04-29T06:06:12.058Z,7.40
2019-04-29T06:08:39.552Z,7.50
2019-04-29T06:11:09.771Z,7.60
2019-04-29T06:13:38.227Z,7.60
2019-04-29T06:16:06.770Z,7.60
2019-04-29T06:18:35.537Z,7.70
2019-04-29T06:21:09.447Z,7.80
2019-04-29T06:23:34.432Z,7.80
2019-04-29T06:26:02.914Z,7.80
2019-04-29T06:28:31.799Z,7.90
2019-04-29T06:31:00.347Z,7.90
2019-04-29T06:33:30.772Z,7.90
2019-04-29T06:35:59.143Z,7.80
2019-04-29T06:38:27.603Z,7.90
2019-04-29T06:40:57.627Z,8.00
2019-04-29T06:43:28.943Z,8.10
2019-04-29T06:45:56.601Z,8.10
2019-04-29T06:48:28.056Z,8.20
2019-04-29T06:50:56.615Z,8.30
2019-04-29T06:53:25.134Z,8.30
2019-04-29T06:55:54.104Z,8.50
2019-04-29T06:58:22.556Z,8.50
2019-04-29T07:00:51.345Z,8.60
2019-04-29T07:03:25.547Z,8.80
2019-04-29T07:05:51.715Z,8.90
2019-04-29T07:08:20.420Z,8.80
2019-04-29T07:10:49.195Z,8.90
2019-04-29T07:13:18.056Z,9.00
2019-04-29T07:15:48.973Z,9.00
2019-04-29T07:18:17.683Z,9.00
2019-04-29T07:20:46.138Z,9.00
2019-04-29T07:23:14.611Z,9.10
2019-04-29T07:25:43.127Z,9.30
2019-04-29T07:28:13.803Z,9.40
2019-04-29T07:31:00.721Z,9.50
2019-04-29T07:33:12.283Z,9.50
2019-04-29T07:35:42.939Z,9.60
2019-04-29T07:38:11.189Z,9.80
2019-04-29T07:40:43.456Z,9.90
2019-04-29T07:43:10.461Z,9.90
2019-04-29T07:45:46.623Z,9.90
2019-04-29T07:48:15.103Z,10.00
2019-04-29T07:50:44.355Z,10.10
2019-04-29T07:53:12.841Z,10.20
2019-04-29T07:55:41.366Z,10.20
2019-04-29T07:58:09.848Z,10.10
2019-04-29T08:00:38.444Z,10.30
2019-04-29T08:03:07.831Z,10.40
2019-04-29T08:05:37.290Z,10.60
2019-04-29T08:08:06.715Z,10.70
2019-04-29T08:10:35.251Z,10.80
2019-04-29T08:13:04.039Z,10.90
2019-04-29T08:15:36.667Z,11.00
2019-04-29T08:18:06.608Z,11.00
2019-04-29T08:20:35.476Z,11.10
2019-04-29T08:23:04.210Z,11.30
2019-04-29T08:25:33.104Z,11.30
2019-04-29T08:28:01.659Z,11.30
2019-04-29T08:30:30.194Z,11.40
2019-04-29T08:32:58.747Z,11.50
2019-04-29T08:35:27.201Z,11.60
2019-04-29T08:37:55.763Z,11.70
2019-04-29T08:40:24.532Z,11.80
2019-04-29T08:42:55.055Z,12.00
2019-04-29T08:45:34.441Z,12.10
2019-04-29T08:48:01.998Z,12.30
2019-04-29T08:50:30.587Z,12.40
2019-04-29T08:52:59.039Z,12.50
2019-04-29T08:55:31.392Z,12.60
2019-04-29T08:57:57.707Z,12.70
2019-04-29T09:00:26.428Z,12.80
2019-04-29T09:02:55.023Z,12.70
2019-04-29T09:05:23.503Z,12.70
2019-04-29T09:07:52.598Z,12.70
2019-04-29T09:10:22.607Z,12.70
2019-04-29T09:12:51.139Z,12.80
2019-04-29T09:15:19.942Z,12.90
2019-04-29T09:17:48.523Z,12.90
2019-04-29T09:20:17.439Z,13.10
2019-04-29T09:22:53.919Z,13.10
2019-04-29T09:25:30.164Z,13.20
2019-04-29T09:28:06.536Z,13.30
2019-04-29T09:30:38.390Z,13.30
2019-04-29T09:33:08.694Z,13.50
2019-04-29T09:35:38.648Z,13.40
2019-04-29T09:38:05.925Z,13.40
2019-04-29T09:40:36.114Z,13.40
2019-04-29T09:43:15.211Z,13.40
2019-04-29T09:45:44.355Z,13.50
2019-04-29T09:48:12.806Z,13.50
2019-04-29T09:50:41.291Z,13.70
2019-04-29T09:53:09.744Z,13.70
2019-04-29T09:55:40.025Z,13.80
2019-04-29T09:58:08.472Z,13.90
2019-04-29T10:00:48.167Z,14.00
2019-04-29T10:03:20.892Z,14.10
2019-04-29T10:06:07.639Z,14.20
2019-04-29T10:08:36.407Z,14.20
2019-04-29T10:11:05.460Z,14.30
2019-04-29T10:13:33.908Z,14.30
2019-04-29T10:16:04.028Z,14.20
2019-04-29T10:18:34.127Z,14.10
2019-04-29T10:21:04.315Z,14.00
2019-04-29T10:23:32.908Z,13.90
2019-04-29T10:26:01.500Z,13.90
2019-04-29T10:28:30.129Z,13.80
2019-04-29T10:30:58.716Z,13.70
2019-04-29T10:33:27.268Z,13.70
2019-04-29T10:35:55.891Z,13.70
2019-04-29T10:38:24.371Z,13.60
2019-04-29T10:41:05.224Z,13.60
2019-04-29T10:43:53.728Z,13.60
2019-04-29T10:46:40.135Z,13.60
2019-04-29T10:49:10.223Z,13.80
2019-04-29T10:51:38.947Z,13.90
2019-04-29T10:54:08.516Z,14.00
2019-04-29T10:56:39.428Z,14.10
2019-04-29T10:59:09.107Z,14.20
2019-04-29T11:02:09.133Z,14.30
2019-04-29T11:04:36.092Z,14.30
2019-04-29T11:07:14.195Z,14.40
2019-04-29T11:09:41.174Z,14.50
2019-04-29T11:12:11.300Z,14.50
2019-04-29T11:14:39.849Z,14.30
2019-04-29T11:17:16.051Z,14.20
2019-04-29T11:19:40.025Z,14.30
2019-04-29T11:22:11.234Z,14.30
2019-04-29T11:24:58.028Z,14.50
2019-04-29T11:27:44.432Z,14.90
2019-04-29T11:30:14.789Z,15.20
2019-04-29T11:32:47.875Z,15.40
2019-04-29T11:35:24.489Z,15.30
2019-04-29T11:37:55.455Z,15.20
2019-04-29T11:40:35.182Z,15.20
2019-04-29T11:42:54.767Z,14.90
2019-04-29T11:45:23.253Z,14.90
2019-04-29T11:47:51.951Z,14.80
2019-04-29T11:50:26.938Z,14.80
2019-04-29T11:52:55.678Z,14.90
2019-04-29T11:55:24.395Z,14.90
2019-04-29T11:58:00.196Z,15.00
2019-04-29T12:00:42.512Z,15.00
2019-04-29T12:03:14.426Z,15.00
2019-04-29T12:05:47.015Z,14.90
2019-04-29T12:08:18.166Z,14.80
2019-04-29T12:10:51.991Z,14.70
2019-04-29T12:13:18.943Z,14.60
2019-04-29T12:15:52.741Z,14.60
2019-04-29T12:18:22.911Z,14.40
2019-04-29T12:21:11.191Z,14.30
2019-04-29T12:23:39.642Z,14.20
2019-04-29T12:26:08.399Z,14.10
2019-04-29T12:28:37.933Z,14.00
2019-04-29T12:31:10.317Z,13.80
2019-04-29T12:33:40.739Z,13.60
2019-04-29T12:36:16.292Z,13.60
2019-04-29T12:38:49.549Z,13.50
2019-04-29T12:41:29.585Z,13.50
2019-04-29T12:43:59.530Z,13.50
2019-04-29T12:46:32.411Z,13.40
2019-04-29T12:49:03.487Z,13.50
2019-04-29T12:51:31.496Z,13.50
2019-04-29T12:53:59.975Z,13.40
2019-04-29T12:56:30.220Z,13.30
2019-04-29T12:58:59.571Z,13.20
2019-04-29T13:01:51.588Z,13.10
2019-04-29T13:04:18.879Z,13.00
2019-04-29T13:07:06.901Z,12.90
2019-04-29T13:09:39.859Z,13.00
2019-04-29T13:12:19.214Z,13.10
2019-04-29T13:14:41.028Z,13.10
2019-04-29T13:17:14.679Z,13.10
2019-04-29T13:19:45.977Z,13.00
2019-04-29T13:22:15.479Z,13.10
2019-04-29T13:24:44.446Z,13.10
2019-04-29T13:27:16.200Z,13.10
2019-04-29T13:29:43.691Z,13.00
2019-04-29T13:32:12.171Z,13.00
2019-04-29T13:34:42.331Z,13.00
2019-04-29T13:37:18.250Z,13.00
2019-04-29T13:39:41.258Z,13.00
2019-04-29T13:42:15.341Z,12.90
2019-04-29T13:44:45.013Z,12.80
2019-04-29T13:47:14.754Z,12.80
2019-04-29T13:49:49.082Z,12.70
2019-04-29T13:52:15.793Z,12.50
2019-04-29T13:54:44.414Z,12.40
2019-04-29T13:57:16.309Z,12.50
2019-04-29T13:59:51.168Z,12.40
2019-04-29T14:02:22.748Z,12.30
2019-04-29T14:05:08.875Z,12.20
2019-04-29T14:07:39.403Z,12.20
2019-04-29T14:10:10.211Z,12.00
2019-04-29T14:13:09.110Z,11.90
2019-04-29T14:15:09.104Z,11.70
2019-04-29T14:17:37.931Z,11.70
2019-04-29T14:20:10.683Z,11.60
2019-04-29T14:22:38.410Z,11.60
2019-04-29T14:25:07.303Z,11.50
2019-04-29T14:27:35.861Z,11.50
2019-04-29T14:30:09.169Z,11.50
2019-04-29T14:32:42.032Z,11.40
2019-04-29T14:35:11.765Z,11.30
2019-04-29T14:37:53.956Z,11.30
2019-04-29T14:40:12.104Z,11.40
2019-04-29T14:42:57.533Z,11.50
2019-04-29T14:45:32.730Z,11.50
2019-04-29T14:48:12.139Z,11.60
2019-04-29T14:50:41.993Z,11.60
2019-04-29T14:53:10.528Z,11.50
2019-04-29T14:55:39.016Z,11.50
2019-04-29T14:58:07.657Z,11.40
2019-04-29T15:00:52.987Z,11.40
2019-04-29T15:03:23.156Z,11.20
2019-04-29T15:05:51.874Z,11.00
2019-04-29T15:08:20.585Z,10.90
2019-04-29T15:10:50.794Z,10.80
2019-04-29T15:13:21.901Z,10.70
2019-04-29T15:16:03.720Z,10.60
2019-04-29T15:18:47.371Z,10.60
2019-04-29T15:21:13.441Z,10.60
2019-04-29T15:23:42.292Z,10.50
2019-04-29T15:26:10.996Z,10.50
2019-04-29T15:28:51.432Z,10.60
2019-04-29T15:31:23.901Z,10.60
2019-04-29T15:33:53.284Z,10.60
2019-04-29T15:36:21.991Z,10.50
2019-04-29T15:39:08.009Z,10.50
2019-04-29T15:41:21.098Z,10.50
2019-04-29T15:43:51.034Z,10.40
2019-04-29T15:46:19.620Z,10.50
2019-04-29T15:48:48.253Z,10.50
2019-04-29T15:51:16.866Z,10.60
2019-04-29T15:53:45.791Z,10.60
2019-04-29T15:56:28.233Z,10.60
2019-04-29T15:58:44.573Z,10.60
2019-04-29T16:01:17.639Z,10.50
2019-04-29T16:03:43.878Z,10.50
2019-04-29T16:06:21.254Z,10.40
2019-04-29T16:08:48.568Z,10.50
2019-04-29T16:11:18.667Z,10.40
2019-04-29T16:13:48.242Z,10.40
2019-04-29T16:16:17.420Z,10.30
2019-04-29T16:18:45.976Z,10.30
2019-04-29T16:21:14.435Z,10.20
2019-04-29T16:23:42.995Z,10.10
2019-04-29T16:26:11.527Z,10.00
2019-04-29T16:28:40.319Z,10.00
2019-04-29T16:33:39.048Z,9.90
2019-04-29T16:36:07.644Z,9.90
2019-04-29T16:38:36.224Z,9.80
2019-04-29T16:41:19.594Z,9.80
2019-04-29T16:43:52.576Z,9.80
2019-04-29T16:46:23.587Z,9.70
2019-04-29T16:48:53.430Z,9.70
2019-04-29T16:51:21.951Z,9.60
2019-04-29T16:53:50.435Z,9.70
2019-04-29T16:56:18.897Z,9.60
2019-04-29T16:58:47.512Z,9.60
2019-04-29T17:01:16.115Z,9.60
2019-04-29T17:03:45.132Z,9.50
2019-04-29T17:06:13.684Z,9.60
2019-04-29T17:09:03.364Z,9.50
2019-04-29T17:11:37.109Z,9.60
2019-04-29T17:14:10.309Z,9.60
2019-04-29T17:16:36.436Z,9.60
2019-04-29T17:19:05.509Z,9.60
2019-04-29T17:21:34.133Z,9.60
2019-04-29T17:24:02.595Z,9.60
2019-04-29T17:26:32.795Z,9.60
2019-04-29T17:31:38.644Z,9.60
2019-04-29T17:34:09.360Z,9.60
2019-04-29T17:35:17.653Z,9.60
2019-04-29T17:35:17.728Z,9.90
2019-04-29T17:36:38.300Z,9.60
2019-04-29T17:39:08.179Z,9.60
2019-04-29T17:41:36.728Z,9.60
2019-04-29T17:44:07.527Z,9.60
2019-04-29T17:46:53.421Z,9.60
2019-04-29T17:49:35.759Z,9.60
2019-04-29T17:52:06.763Z,9.60
2019-04-29T17:54:39.764Z,9.50
2019-04-29T17:57:25.649Z,9.50
2019-04-29T17:59:41.951Z,9.50
2019-04-29T18:02:28.571Z,9.50
2019-04-29T18:04:58.667Z,9.50
2019-04-29T18:07:40.580Z,9.50
2019-04-29T18:10:24.452Z,9.50
2019-04-29T18:12:53.195Z,9.50
2019-04-29T18:15:23.363Z,9.50
2019-04-29T18:17:51.923Z,9.60
2019-04-29T18:20:32.928Z,9.60
2019-04-29T18:23:15.824Z,9.60
2019-04-29T18:25:59.007Z,9.60
2019-04-29T18:28:28.220Z,9.60
2019-04-29T18:30:57.936Z,9.50
2019-04-29T18:33:30.170Z,9.50
2019-04-29T18:36:03.784Z,9.50
2019-04-29T18:38:27.518Z,9.50
2019-04-29T18:40:56.071Z,9.50
2019-04-29T18:43:26.605Z,9.50
2019-04-29T18:45:58.283Z,9.50
2019-04-29T18:48:26.850Z,9.50
2019-04-29T18:50:57.020Z,9.50
2019-04-29T18:53:25.779Z,9.50
2019-04-29T18:55:55.037Z,9.50
2019-04-29T18:58:24.998Z,9.50
2019-04-29T19:00:56.218Z,9.50
2019-04-29T19:03:29.676Z,9.50
2019-04-29T19:05:57.631Z,9.50
2019-04-29T19:08:28.690Z,9.50
2019-04-29T19:10:56.970Z,9.50
2019-04-29T19:13:26.016Z,9.50
2019-04-29T19:15:58.802Z,9.50
2019-04-29T19:18:25.455Z,9.50
2019-04-29T19:20:54.851Z,9.50
2019-04-29T19:23:29.162Z,9.50
2019-04-29T19:25:54.475Z,9.50
2019-04-29T19:28:29.633Z,9.50
2019-04-29T19:30:56.123Z,9.50
2019-04-29T19:33:25.086Z,9.60
2019-04-29T19:35:55.294Z,9.50
2019-04-29T19:38:25.315Z,9.60
2019-04-29T19:40:54.056Z,9.60
2019-04-29T19:43:22.583Z,9.50
2019-04-29T19:45:51.134Z,9.60
2019-04-29T19:48:22.611Z,9.50
2019-04-29T19:51:13.017Z,9.60
2019-04-29T19:53:19.983Z,9.50
2019-04-29T19:55:48.484Z,9.50
2019-04-29T19:58:17.636Z,9.50
2019-04-29T20:00:47.594Z,9.50
2019-04-29T20:03:23.455Z,9.60
2019-04-29T20:05:49.740Z,9.60
2019-04-29T20:08:31.631Z,9.60
2019-04-29T20:10:51.657Z,9.60
2019-04-29T20:13:19.493Z,9.60
2019-04-29T20:15:50.253Z,9.60
2019-04-29T20:18:35.842Z,9.60
2019-04-29T20:21:08.936Z,9.60
2019-04-29T20:23:38.455Z,9.60
2019-04-29T20:26:13.987Z,9.60
2019-04-29T20:28:35.997Z,9.60
2019-04-29T20:31:16.274Z,9.50
2019-04-29T20:33:35.497Z,9.60
2019-04-29T20:36:05.915Z,9.60
2019-04-29T20:38:38.508Z,9.50
2019-04-29T20:41:07.908Z,9.60
2019-04-29T20:43:36.092Z,9.60
2019-04-29T20:46:04.948Z,9.60
2019-04-29T20:48:36.783Z,9.60
2019-04-29T20:51:11.447Z,9.60
2019-04-29T20:53:40.074Z,9.70
2019-04-29T20:56:11.868Z,9.70
2019-04-29T20:58:38.674Z,9.60
2019-04-29T21:01:11.291Z,9.70
2019-04-29T21:03:40.906Z,9.70
2019-04-29T21:06:09.682Z,9.70
2019-04-29T21:08:38.175Z,9.70
2019-04-29T21:11:08.349Z,9.70
2019-04-29T21:13:44.250Z,9.70
2019-04-29T21:16:22.910Z,9.70
2019-04-29T21:18:54.180Z,9.70
2019-04-29T21:21:22.792Z,9.70
2019-04-29T21:23:51.275Z,9.80
2019-04-29T21:26:19.735Z,9.80
2019-04-29T21:28:48.222Z,9.80
2019-04-29T21:31:19.982Z,9.80
2019-04-29T21:33:50.632Z,9.80
2019-04-29T21:36:26.591Z,9.80
2019-04-29T21:39:15.338Z,9.80
2019-04-29T21:41:45.928Z,9.80
2019-04-29T21:44:14.838Z,9.80
2019-04-29T21:46:45.184Z,9.80
2019-04-29T21:49:13.570Z,9.80
2019-04-29T21:51:45.939Z,9.80
2019-04-29T21:54:14.130Z,9.80
2019-04-29T21:56:46.551Z,9.80
2019-04-29T21:59:12.691Z,9.80
2019-04-29T22:01:41.228Z,9.90
2019-04-29T22:04:09.886Z,9.90
2019-04-29T22:06:38.375Z,9.90
2019-04-29T22:09:08.602Z,9.90
2019-04-29T22:11:43.012Z,9.80
2019-04-29T22:14:09.846Z,9.80
2019-04-29T22:16:37.531Z,9.90
2019-04-29T22:19:06.392Z,9.90
2019-04-29T22:21:36.026Z,9.80
2019-04-29T22:24:06.327Z,9.90
2019-04-29T22:26:35.400Z,9.90
2019-04-29T22:29:03.947Z,9.90
2019-04-29T22:31:34.196Z,9.90
2019-04-29T22:34:03.158Z,9.90
2019-04-29T22:36:31.787Z,9.90
2019-04-29T22:39:00.244Z,9.90
2019-04-29T22:41:33.522Z,9.90
2019-04-29T22:44:04.904Z,9.90
2019-04-29T22:46:35.279Z,9.90
2019-04-29T22:49:05.706Z,9.90
2019-04-29T22:51:35.430Z,9.90
2019-04-29T22:54:04.129Z,9.90
2019-04-29T22:56:32.678Z,9.90
2019-04-29T22:59:01.202Z,9.90
2019-04-29T23:01:29.755Z,9.90
2019-04-29T23:03:58.283Z,9.90
2019-04-29T23:06:26.766Z,9.90
2019-04-29T23:08:56.133Z,9.90
2019-04-29T23:11:25.059Z,9.90
2019-04-29T23:13:55.288Z,9.90
2019-04-29T23:16:23.795Z,9.90
2019-04-29T23:18:52.251Z,9.90
2019-04-29T23:21:43.042Z,9.90
2019-04-29T23:24:26.830Z,9.90
2019-04-29T23:26:55.323Z,9.90
2019-04-29T23:29:25.497Z,9.90
2019-04-29T23:31:55.394Z,9.90
2019-04-29T23:34:27.715Z,9.90
2019-04-29T23:36:54.231Z,9.90
2019-04-29T23:39:22.687Z,9.90
2019-04-29T23:41:51.167Z,9.90
2019-04-29T23:44:19.623Z,9.90
2019-04-29T23:46:48.075Z,9.90
2019-04-29T23:49:16.638Z,10.00
2019-04-29T23:51:46.437Z,9.90
2019-04-29T23:54:15.323Z,9.90
2019-04-29T23:57:06.002Z,9.90
2019-04-29T23:59:54.513Z,9.90
